createdAt,value
2023-06-11T00:00:10.872Z,80.67
2023-06-11T00:01:15.656Z,79.83
2023-06-11T00:02:23.075Z,81.00
2023-06-11T00:03:26.585Z,81.50
2023-06-11T00:04:35.852Z,83.17
2023-06-11T00:05:39.032Z,90.17
2023-06-11T00:06:42.736Z,87.67
2023-06-11T00:07:45.716Z,85.17
2023-06-11T00:08:53.282Z,82.67
2023-06-11T00:09:56.330Z,83.33
2023-06-11T00:10:59.307Z,86.67
2023-06-11T00:12:02.324Z,84.67
2023-06-11T00:13:05.378Z,83.50
2023-06-11T00:14:11.237Z,82.83
2023-06-11T00:15:14.236Z,83.00
2023-06-11T00:16:17.996Z,82.50
2023-06-11T00:17:21.013Z,83.33
2023-06-11T00:18:24.326Z,84.67
2023-06-11T00:19:30.375Z,80.50
2023-06-11T00:20:34.110Z,76.83
2023-06-11T00:21:37.884Z,74.50
2023-06-11T00:22:42.394Z,75.00
2023-06-11T00:23:45.452Z,76.00
2023-06-11T00:24:48.488Z,75.83
2023-06-11T00:25:53.731Z,74.67
2023-06-11T00:26:56.770Z,75.00
2023-06-11T00:28:00.143Z,75.17
2023-06-11T00:29:03.150Z,73.17
2023-06-11T00:30:07.561Z,73.00
2023-06-11T00:31:10.983Z,72.33
2023-06-11T00:32:14.000Z,72.17
2023-06-11T00:33:16.982Z,72.00
2023-06-11T00:34:20.007Z,72.00
2023-06-11T00:35:23.044Z,71.17
2023-06-11T00:36:28.082Z,69.00
2023-06-11T00:37:33.547Z,66.17
2023-06-11T00:38:36.912Z,66.67
2023-06-11T00:39:39.902Z,67.00
2023-06-11T00:40:43.056Z,67.00
2023-06-11T00:41:50.305Z,66.67
2023-06-11T00:42:53.287Z,63.67
2023-06-11T00:43:56.708Z,64.00
2023-06-11T00:45:02.532Z,63.83
2023-06-11T00:46:11.841Z,61.17
2023-06-11T00:47:17.933Z,59.50
2023-06-11T00:48:22.190Z,57.83
2023-06-11T00:49:25.773Z,58.00
2023-06-11T00:50:36.187Z,58.50
2023-06-11T00:51:43.263Z,59.33
2023-06-11T00:52:47.443Z,60.83
2023-06-11T00:53:52.354Z,61.00
2023-06-11T00:54:58.632Z,62.17
2023-06-11T00:56:03.021Z,63.83
2023-06-11T00:57:08.205Z,66.00
2023-06-11T00:58:14.879Z,67.00
2023-06-11T00:59:18.885Z,67.00
2023-06-11T01:00:21.908Z,65.33
2023-06-11T01:01:31.642Z,63.00
2023-06-11T01:02:51.952Z,62.17
2023-06-11T01:03:58.798Z,62.33
2023-06-11T01:05:06.700Z,64.17
2023-06-11T01:06:18.468Z,65.00
2023-06-11T01:07:23.940Z,63.83
2023-06-11T01:08:28.142Z,62.83
2023-06-11T01:09:31.165Z,63.00
2023-06-11T01:10:34.961Z,61.50
2023-06-11T01:11:40.113Z,61.00
2023-06-11T01:12:43.117Z,61.00
2023-06-11T01:13:46.890Z,60.00
2023-06-11T01:14:50.129Z,59.33
2023-06-11T01:16:03.411Z,59.00
2023-06-11T01:17:42.162Z,59.00
2023-06-11T01:19:04.684Z,55.67
2023-06-11T01:20:18.167Z,51.83
2023-06-11T01:21:30.587Z,52.00
2023-06-11T01:23:18.936Z,52.50
2023-06-11T01:25:02.555Z,52.67
2023-06-11T01:26:41.741Z,52.00
2023-06-11T01:28:09.273Z,50.83
2023-06-11T01:29:16.417Z,51.00
2023-06-11T01:30:22.212Z,52.00
2023-06-11T01:31:30.917Z,53.00
2023-06-11T01:32:34.089Z,51.50
2023-06-11T01:33:37.457Z,50.17
2023-06-11T01:34:43.681Z,50.83
2023-06-11T01:35:50.053Z,52.00
2023-06-11T01:36:53.273Z,52.17
2023-06-11T01:37:56.870Z,52.50
2023-06-11T01:39:00.003Z,53.00
2023-06-11T01:40:03.752Z,53.00
2023-06-11T01:41:06.741Z,53.17
2023-06-11T01:42:09.797Z,55.67
2023-06-11T01:43:12.805Z,57.17
2023-06-11T01:44:15.961Z,56.83
2023-06-11T01:45:19.880Z,56.00
2023-06-11T01:46:23.396Z,57.00
2023-06-11T01:47:26.588Z,56.67
2023-06-11T01:48:29.585Z,57.00
2023-06-11T01:49:32.572Z,57.33
2023-06-11T01:50:35.762Z,58.00
2023-06-11T01:51:38.880Z,58.50
2023-06-11T01:52:42.417Z,62.17
2023-06-11T01:53:45.658Z,64.00
2023-06-11T01:54:48.656Z,65.83
2023-06-11T01:55:52.080Z,67.00
2023-06-11T01:56:55.069Z,65.83
2023-06-11T01:57:58.095Z,62.50
2023-06-11T01:59:01.308Z,61.00
2023-06-11T02:00:11.669Z,61.00
2023-06-11T02:01:14.884Z,60.83
2023-06-11T02:02:17.941Z,60.00
2023-06-11T02:03:21.212Z,59.50
2023-06-11T02:04:24.340Z,60.00
2023-06-11T02:05:27.331Z,61.67
2023-06-11T02:06:31.132Z,62.50
2023-06-11T02:07:34.331Z,62.17
2023-06-11T02:08:37.339Z,62.17
2023-06-11T02:09:40.332Z,63.50
2023-06-11T02:10:46.021Z,62.83
2023-06-11T02:11:49.041Z,60.50
2023-06-11T02:12:52.038Z,62.83
2023-06-11T02:13:55.051Z,63.00
2023-06-11T02:14:58.123Z,63.00
2023-06-11T02:16:01.177Z,62.33
2023-06-11T02:17:04.425Z,59.50
2023-06-11T02:18:07.447Z,59.33
2023-06-11T02:19:10.527Z,63.50
2023-06-11T02:20:15.314Z,65.00
2023-06-11T02:21:18.291Z,65.00
2023-06-11T02:22:21.329Z,63.33
2023-06-11T02:23:24.350Z,57.83
2023-06-11T02:24:27.464Z,56.00
2023-06-11T02:25:30.786Z,56.50
2023-06-11T02:26:33.758Z,57.00
2023-06-11T02:27:36.859Z,59.00
2023-06-11T02:28:39.845Z,60.17
2023-06-11T02:29:42.850Z,61.00
2023-06-11T02:30:45.859Z,61.33
2023-06-11T02:31:48.913Z,63.00
2023-06-11T02:32:52.034Z,62.83
2023-06-11T02:33:55.092Z,63.00
2023-06-11T02:34:58.081Z,64.67
2023-06-11T02:36:01.232Z,64.50
2023-06-11T02:37:04.254Z,64.50
2023-06-11T02:38:07.248Z,64.50
2023-06-11T02:39:10.235Z,64.00
2023-06-11T02:40:13.592Z,65.50
2023-06-11T02:41:16.906Z,68.67
2023-06-11T02:42:19.905Z,70.50
2023-06-11T02:43:22.903Z,69.17
2023-06-11T02:44:25.984Z,67.00
2023-06-11T02:45:28.963Z,63.00
2023-06-11T02:46:32.029Z,62.00
2023-06-11T02:47:35.051Z,61.33
2023-06-11T02:48:38.060Z,60.00
2023-06-11T02:49:41.084Z,60.00
2023-06-11T02:50:44.069Z,60.83
2023-06-11T02:51:47.054Z,61.00
2023-06-11T02:52:50.084Z,61.00
2023-06-11T02:53:53.082Z,62.83
2023-06-11T02:54:56.145Z,65.83
2023-06-11T02:55:59.132Z,67.50
2023-06-11T02:57:02.112Z,64.50
2023-06-11T02:58:05.117Z,61.33
2023-06-11T02:59:08.108Z,66.00
2023-06-11T03:00:12.061Z,67.83
2023-06-11T03:01:15.123Z,74.17
2023-06-11T03:02:18.293Z,71.83
2023-06-11T03:03:21.367Z,70.83
2023-06-11T03:04:24.423Z,70.67
2023-06-11T03:05:27.434Z,71.50
2023-06-11T03:06:30.494Z,76.00
2023-06-11T03:07:33.522Z,68.17
2023-06-11T03:08:36.510Z,63.00
2023-06-11T03:09:39.504Z,62.83
2023-06-11T03:10:42.517Z,61.17
2023-06-11T03:11:45.988Z,60.17
2023-06-11T03:12:48.977Z,61.83
2023-06-11T03:13:51.968Z,62.33
2023-06-11T03:14:54.959Z,61.50
2023-06-11T03:15:58.001Z,61.00
2023-06-11T03:17:01.082Z,61.00
2023-06-11T03:18:04.751Z,61.83
2023-06-11T03:19:07.833Z,62.00
2023-06-11T03:20:11.620Z,61.33
2023-06-11T03:21:15.017Z,60.00
2023-06-11T03:22:18.045Z,55.33
2023-06-11T03:23:21.029Z,55.33
2023-06-11T03:24:24.150Z,54.83
2023-06-11T03:25:27.192Z,52.83
2023-06-11T03:26:30.181Z,52.50
2023-06-11T03:27:33.298Z,49.83
2023-06-11T03:28:36.283Z,49.17
2023-06-11T03:29:39.266Z,50.00
2023-06-11T03:30:42.257Z,50.00
2023-06-11T03:31:45.407Z,50.83
2023-06-11T03:32:48.465Z,51.33
2023-06-11T03:33:51.515Z,51.00
2023-06-11T03:34:54.553Z,49.17
2023-06-11T03:35:57.588Z,49.17
2023-06-11T03:37:00.623Z,50.00
2023-06-11T03:38:03.618Z,51.67
2023-06-11T03:39:06.596Z,53.33
2023-06-11T03:40:10.258Z,54.67
2023-06-11T03:41:13.276Z,55.33
2023-06-11T03:42:16.397Z,53.17
2023-06-11T03:43:19.402Z,51.50
2023-06-11T03:44:22.413Z,52.00
2023-06-11T03:45:25.471Z,51.17
2023-06-11T03:46:28.461Z,50.83
2023-06-11T03:47:31.655Z,49.67
2023-06-11T03:48:34.695Z,47.33
2023-06-11T03:49:37.705Z,46.83
2023-06-11T03:50:40.881Z,47.00
2023-06-11T03:51:43.898Z,46.00
2023-06-11T03:52:46.937Z,46.00
2023-06-11T03:53:49.941Z,46.17
2023-06-11T03:54:52.972Z,47.67
2023-06-11T03:55:55.977Z,49.00
2023-06-11T03:56:59.537Z,49.00
2023-06-11T03:58:02.715Z,49.67
2023-06-11T03:59:05.703Z,50.00
2023-06-11T04:00:09.698Z,49.50
2023-06-11T04:01:12.843Z,44.17
2023-06-11T04:02:15.985Z,43.33
2023-06-11T04:03:19.037Z,43.00
2023-06-11T04:04:22.161Z,43.67
2023-06-11T04:05:25.209Z,43.00
2023-06-11T04:06:29.020Z,43.50
2023-06-11T04:07:32.021Z,43.00
2023-06-11T04:08:35.040Z,43.33
2023-06-11T04:09:38.020Z,43.83
2023-06-11T04:10:41.057Z,43.33
2023-06-11T04:11:44.106Z,46.00
2023-06-11T04:12:47.940Z,47.00
2023-06-11T04:13:51.406Z,47.33
2023-06-11T04:14:54.485Z,51.33
2023-06-11T04:15:57.509Z,53.00
2023-06-11T04:17:00.961Z,52.83
2023-06-11T04:18:04.114Z,52.00
2023-06-11T04:19:07.217Z,55.00
2023-06-11T04:20:10.535Z,56.67
2023-06-11T04:21:13.525Z,55.67
2023-06-11T04:22:16.546Z,55.33
2023-06-11T04:23:19.523Z,57.00
2023-06-11T04:24:22.522Z,57.67
2023-06-11T04:25:26.007Z,58.00
2023-06-11T04:26:30.036Z,58.83
2023-06-11T04:27:34.958Z,58.17
2023-06-11T04:28:38.765Z,57.50
2023-06-11T04:29:41.763Z,56.67
2023-06-11T04:30:44.816Z,56.00
2023-06-11T04:31:48.751Z,56.83
2023-06-11T04:32:56.262Z,57.67
2023-06-11T04:34:04.301Z,57.00
2023-06-11T04:35:08.037Z,57.50
2023-06-11T04:36:11.268Z,58.67
2023-06-11T04:37:17.235Z,60.67
2023-06-11T04:38:20.225Z,60.00
2023-06-11T04:39:23.506Z,59.00
2023-06-11T04:40:26.583Z,62.00
2023-06-11T04:41:30.737Z,67.33
2023-06-11T04:42:35.887Z,70.67
2023-06-11T04:43:39.049Z,69.67
2023-06-11T04:44:42.024Z,67.67
2023-06-11T04:45:45.074Z,67.00
2023-06-11T04:46:49.091Z,67.67
2023-06-11T04:47:52.390Z,66.83
2023-06-11T04:48:59.628Z,60.50
2023-06-11T04:50:06.320Z,56.00
2023-06-11T04:51:13.330Z,54.83
2023-06-11T04:52:17.111Z,56.00
2023-06-11T04:53:24.207Z,56.00
2023-06-11T04:54:28.471Z,57.50
2023-06-11T04:55:33.508Z,58.00
2023-06-11T04:56:36.557Z,58.50
2023-06-11T04:57:40.124Z,60.00
2023-06-11T04:58:43.099Z,60.50
2023-06-11T04:59:46.644Z,60.50
2023-06-11T05:00:49.849Z,60.00
2023-06-11T05:01:55.002Z,60.00
2023-06-11T05:02:58.314Z,60.00
2023-06-11T05:04:01.320Z,61.00
2023-06-11T05:05:06.569Z,62.17
2023-06-11T05:06:09.825Z,63.33
2023-06-11T05:07:13.338Z,66.00
2023-06-11T05:08:17.045Z,67.50
2023-06-11T05:09:20.112Z,70.50
2023-06-11T05:10:23.087Z,72.50
2023-06-11T05:11:26.069Z,75.33
2023-06-11T05:12:29.070Z,76.83
2023-06-11T05:13:32.061Z,79.00
2023-06-11T05:14:35.100Z,81.67
2023-06-11T05:15:38.082Z,81.33
2023-06-11T05:16:41.156Z,80.33
2023-06-11T05:17:44.198Z,80.00
2023-06-11T05:18:47.186Z,79.00
2023-06-11T05:19:50.165Z,79.67
2023-06-11T05:20:53.897Z,77.50
2023-06-11T05:21:56.904Z,78.33
2023-06-11T05:23:00.146Z,82.83
2023-06-11T05:24:09.235Z,88.67
2023-06-11T05:25:16.251Z,88.17
2023-06-11T05:26:20.311Z,86.50
2023-06-11T05:27:24.887Z,84.00
2023-06-11T05:28:27.945Z,80.17
2023-06-11T05:29:31.285Z,78.17
2023-06-11T05:30:40.345Z,78.50
2023-06-11T05:31:43.849Z,79.50
2023-06-11T05:32:47.159Z,87.17
2023-06-11T05:33:50.195Z,86.33
2023-06-11T05:34:53.184Z,80.50
2023-06-11T05:35:56.171Z,66.17
2023-06-11T05:36:59.152Z,63.33
2023-06-11T05:38:04.900Z,65.83
2023-06-11T05:39:07.887Z,68.17
2023-06-11T05:40:12.343Z,71.67
2023-06-11T05:41:16.082Z,73.33
2023-06-11T05:42:19.057Z,73.33
2023-06-11T05:43:22.053Z,73.00
2023-06-11T05:44:25.050Z,76.00
2023-06-11T05:45:28.104Z,80.83
2023-06-11T05:46:31.153Z,102.67
2023-06-11T05:47:35.670Z,95.50
2023-06-11T05:48:38.797Z,91.67
2023-06-11T05:49:41.823Z,88.83
2023-06-11T05:50:44.856Z,84.00
2023-06-11T05:51:47.842Z,77.00
2023-06-11T05:52:50.821Z,75.83
2023-06-11T05:53:53.834Z,71.83
2023-06-11T05:54:56.809Z,63.00
2023-06-11T05:56:04.712Z,60.67
2023-06-11T05:57:21.939Z,62.83
2023-06-11T05:58:24.916Z,59.50
2023-06-11T05:59:27.893Z,49.83
2023-06-11T06:00:30.993Z,46.83
2023-06-11T06:01:34.442Z,38.83
2023-06-11T06:02:37.608Z,38.33
2023-06-11T06:03:40.935Z,41.83
2023-06-11T06:04:47.604Z,45.83
2023-06-11T06:05:50.613Z,48.00
2023-06-11T06:06:53.582Z,49.33
2023-06-11T06:07:56.888Z,49.50
2023-06-11T06:09:00.386Z,50.67
2023-06-11T06:10:03.977Z,52.17
2023-06-11T06:11:06.970Z,59.17
2023-06-11T06:12:10.316Z,68.17
2023-06-11T06:13:13.292Z,61.83
2023-06-11T06:14:16.473Z,54.83
2023-06-11T06:15:19.471Z,53.00
2023-06-11T06:16:23.518Z,53.67
2023-06-11T06:17:27.652Z,54.00
2023-06-11T06:18:31.000Z,54.17
2023-06-11T06:19:33.992Z,54.83
2023-06-11T06:20:36.976Z,55.83
2023-06-11T06:21:39.963Z,57.00
2023-06-11T06:22:42.970Z,56.83
2023-06-11T06:23:45.968Z,57.00
2023-06-11T06:24:48.968Z,59.17
2023-06-11T06:25:51.952Z,62.17
2023-06-11T06:26:57.795Z,60.50
2023-06-11T06:28:01.012Z,58.50
2023-06-11T06:29:04.215Z,55.83
2023-06-11T06:30:07.883Z,54.83
2023-06-11T06:31:13.638Z,54.33
2023-06-11T06:32:16.678Z,54.33
2023-06-11T06:33:19.730Z,54.00
2023-06-11T06:34:22.796Z,54.33
2023-06-11T06:35:25.822Z,54.83
2023-06-11T06:36:28.826Z,53.50
2023-06-11T06:37:31.872Z,52.17
2023-06-11T06:38:36.392Z,52.00
2023-06-11T06:39:39.365Z,51.17
2023-06-11T06:40:42.348Z,50.17
2023-06-11T06:41:45.432Z,59.67
2023-06-11T06:42:48.433Z,75.00
2023-06-11T06:43:53.677Z,69.67
2023-06-11T06:44:57.050Z,68.17
2023-06-11T06:46:00.085Z,67.50
2023-06-11T06:47:03.103Z,72.33
2023-06-11T06:48:06.709Z,74.83
2023-06-11T06:49:09.740Z,72.67
2023-06-11T06:50:13.019Z,71.17
2023-06-11T06:51:17.795Z,68.50
2023-06-11T06:52:20.781Z,67.50
2023-06-11T06:53:23.753Z,65.50
2023-06-11T06:54:26.738Z,64.17
2023-06-11T06:55:29.717Z,63.17
2023-06-11T06:56:32.707Z,54.67
2023-06-11T06:57:36.250Z,45.00
2023-06-11T06:58:39.340Z,34.67
2023-06-11T06:59:42.328Z,32.50
2023-06-11T07:00:46.325Z,33.00
2023-06-11T07:01:49.387Z,37.00
2023-06-11T07:02:52.481Z,39.33
2023-06-11T07:03:55.490Z,41.33
2023-06-11T07:04:58.552Z,43.00
2023-06-11T07:06:01.987Z,43.67
2023-06-11T07:07:05.186Z,44.00
2023-06-11T07:08:13.241Z,44.33
2023-06-11T07:09:16.258Z,43.83
2023-06-11T07:10:19.276Z,43.33
2023-06-11T07:11:23.308Z,45.00
2023-06-11T07:12:26.354Z,50.67
2023-06-11T07:13:29.325Z,58.00
2023-06-11T07:14:32.320Z,73.67
2023-06-11T07:15:35.303Z,82.83
2023-06-11T07:16:39.685Z,73.17
2023-06-11T07:17:42.738Z,75.50
2023-06-11T07:18:45.946Z,84.50
2023-06-11T07:19:49.007Z,93.00
2023-06-11T07:20:52.159Z,104.67
2023-06-11T07:21:55.142Z,111.83
2023-06-11T07:23:00.462Z,114.17
2023-06-11T07:24:06.163Z,107.67
2023-06-11T07:25:09.566Z,101.50
2023-06-11T07:26:15.256Z,97.17
2023-06-11T07:27:18.283Z,94.50
2023-06-11T07:28:21.519Z,93.83
2023-06-11T07:29:26.785Z,97.83
2023-06-11T07:30:30.477Z,92.83
2023-06-11T07:31:33.473Z,85.00
2023-06-11T07:32:37.912Z,86.33
2023-06-11T07:33:42.846Z,87.00
2023-06-11T07:34:45.881Z,146.83
2023-06-11T07:35:50.611Z,133.17
2023-06-11T07:36:53.607Z,113.67
2023-06-11T07:37:56.954Z,128.83
2023-06-11T07:38:59.929Z,120.00
2023-06-11T07:40:02.930Z,111.83
2023-06-11T07:41:05.895Z,108.33
2023-06-11T07:42:09.011Z,105.83
2023-06-11T07:43:12.004Z,102.67
2023-06-11T07:44:15.303Z,100.67
2023-06-11T07:45:20.491Z,102.00
2023-06-11T07:46:25.893Z,102.83
2023-06-11T07:47:28.950Z,96.83
2023-06-11T07:48:32.160Z,75.17
2023-06-11T07:49:35.149Z,78.00
2023-06-11T07:50:38.851Z,83.00
2023-06-11T07:51:43.930Z,84.67
2023-06-11T07:52:46.916Z,87.17
2023-06-11T07:53:51.005Z,88.33
2023-06-11T07:54:54.001Z,88.33
2023-06-11T07:55:58.413Z,86.17
2023-06-11T07:57:01.599Z,77.83
2023-06-11T07:58:04.619Z,79.17
2023-06-11T07:59:08.176Z,80.50
2023-06-11T08:00:14.432Z,81.33
2023-06-11T08:01:17.814Z,82.83
2023-06-11T08:02:21.117Z,86.33
2023-06-11T08:03:24.299Z,87.17
2023-06-11T08:04:27.425Z,95.00
2023-06-11T08:05:31.354Z,130.83
2023-06-11T08:06:34.454Z,118.83
2023-06-11T08:07:37.440Z,111.50
2023-06-11T08:08:40.725Z,109.50
2023-06-11T08:09:43.729Z,111.50
2023-06-11T08:10:47.068Z,109.17
2023-06-11T08:11:50.097Z,98.00
2023-06-11T08:12:53.121Z,97.00
2023-06-11T08:13:56.096Z,98.17
2023-06-11T08:14:59.072Z,97.83
2023-06-11T08:16:02.551Z,90.17
2023-06-11T08:17:06.106Z,85.33
2023-06-11T08:18:09.237Z,84.50
2023-06-11T08:19:12.694Z,79.33
2023-06-11T08:20:17.540Z,81.67
2023-06-11T08:21:20.752Z,80.50
2023-06-11T08:22:23.757Z,77.83
2023-06-11T08:23:26.770Z,69.83
2023-06-11T08:24:31.862Z,67.50
2023-06-11T08:25:35.023Z,69.67
2023-06-11T08:26:37.997Z,72.00
2023-06-11T08:27:41.134Z,72.67
2023-06-11T08:28:44.293Z,75.00
2023-06-11T08:29:47.293Z,74.33
2023-06-11T08:30:50.288Z,65.33
2023-06-11T08:31:53.472Z,65.17
2023-06-11T08:32:57.575Z,67.50
2023-06-11T08:34:00.928Z,69.00
2023-06-11T08:35:04.125Z,64.83
2023-06-11T08:36:07.614Z,65.17
2023-06-11T08:37:10.623Z,67.83
2023-06-11T08:38:13.610Z,77.50
2023-06-11T08:39:17.213Z,77.67
2023-06-11T08:40:22.258Z,63.50
2023-06-11T08:41:25.317Z,50.67
2023-06-11T08:42:28.317Z,49.17
2023-06-11T08:43:31.402Z,53.83
2023-06-11T08:44:35.657Z,56.67
2023-06-11T08:45:38.965Z,57.33
2023-06-11T08:46:46.191Z,58.00
2023-06-11T08:47:56.138Z,54.83
2023-06-11T08:49:00.522Z,56.00
2023-06-11T08:50:04.797Z,58.33
2023-06-11T08:51:11.685Z,65.17
2023-06-11T08:52:16.047Z,79.17
2023-06-11T08:53:20.752Z,80.17
2023-06-11T08:54:24.421Z,82.83
2023-06-11T08:55:27.619Z,86.00
2023-06-11T08:56:31.033Z,81.67
2023-06-11T08:57:34.003Z,79.67
2023-06-11T08:58:37.461Z,79.50
2023-06-11T08:59:40.443Z,85.50
2023-06-11T09:00:45.931Z,81.33
2023-06-11T09:01:54.306Z,76.00
2023-06-11T09:02:57.510Z,76.50
2023-06-11T09:04:01.377Z,80.83
2023-06-11T09:05:07.656Z,79.67
2023-06-11T09:06:11.592Z,79.33
2023-06-11T09:07:26.987Z,83.50
2023-06-11T09:08:30.434Z,101.00
2023-06-11T09:09:33.436Z,114.00
2023-06-11T09:10:50.438Z,107.00
2023-06-11T09:11:53.905Z,101.17
2023-06-11T09:12:57.985Z,101.50
2023-06-11T09:14:02.291Z,120.50
2023-06-11T09:15:06.838Z,115.67
2023-06-11T09:16:09.857Z,110.67
2023-06-11T09:17:17.156Z,104.67
2023-06-11T09:18:24.968Z,95.67
2023-06-11T09:19:27.940Z,82.00
2023-06-11T09:20:32.866Z,81.17
2023-06-11T09:21:37.795Z,97.00
2023-06-11T09:22:43.823Z,97.67
2023-06-11T09:23:48.050Z,81.67
2023-06-11T09:24:52.239Z,82.33
2023-06-11T09:25:55.253Z,83.17
2023-06-11T09:27:00.134Z,67.00
2023-06-11T09:28:07.419Z,67.17
2023-06-11T09:29:10.404Z,67.50
2023-06-11T09:30:20.066Z,71.00
2023-06-11T09:31:23.266Z,70.50
2023-06-11T09:32:34.098Z,69.83
2023-06-11T09:33:38.473Z,81.33
2023-06-11T09:34:41.737Z,91.00
2023-06-11T09:35:47.473Z,121.50
2023-06-11T09:36:50.547Z,132.50
2023-06-11T09:37:54.136Z,111.83
2023-06-11T09:38:57.167Z,97.50
2023-06-11T09:40:00.670Z,92.00
2023-06-11T09:41:09.496Z,87.83
2023-06-11T09:42:25.625Z,86.33
2023-06-11T09:43:28.764Z,88.50
2023-06-11T09:44:34.587Z,83.50
2023-06-11T09:45:38.656Z,80.83
2023-06-11T09:46:41.638Z,81.33
2023-06-11T09:47:47.305Z,81.33
2023-06-11T09:48:50.413Z,81.83
2023-06-11T09:49:54.512Z,84.50
2023-06-11T09:50:57.514Z,76.50
2023-06-11T09:52:01.560Z,68.33
2023-06-11T09:53:05.920Z,62.83
2023-06-11T09:54:10.152Z,65.17
2023-06-11T09:55:15.005Z,76.00
2023-06-11T09:56:20.022Z,82.67
2023-06-11T09:57:23.558Z,85.00
2023-06-11T09:58:28.563Z,85.00
2023-06-11T09:59:35.317Z,86.17
2023-06-11T10:00:38.314Z,99.83
2023-06-11T10:01:48.559Z,104.50
2023-06-11T10:02:51.998Z,100.67
2023-06-11T10:03:55.142Z,100.50
2023-06-11T10:04:58.571Z,98.83
2023-06-11T10:06:17.550Z,93.00
2023-06-11T10:07:24.985Z,94.33
2023-06-11T10:08:34.374Z,101.17
2023-06-11T10:09:39.442Z,98.50
2023-06-11T10:10:46.268Z,95.50
2023-06-11T10:11:49.852Z,95.00
2023-06-11T10:12:54.403Z,86.67
2023-06-11T10:14:02.256Z,80.33
2023-06-11T10:15:08.932Z,85.33
2023-06-11T10:16:12.240Z,88.83
2023-06-11T10:17:16.512Z,84.67
2023-06-11T10:18:19.914Z,79.17
2023-06-11T10:19:23.847Z,79.67
2023-06-11T10:20:33.004Z,78.67
2023-06-11T10:21:45.671Z,86.67
2023-06-11T10:22:48.764Z,81.67
2023-06-11T10:23:54.524Z,93.33
2023-06-11T10:25:01.573Z,98.50
2023-06-11T10:26:04.905Z,96.50
2023-06-11T10:27:14.234Z,97.50
2023-06-11T10:28:17.256Z,97.83
2023-06-11T10:29:27.114Z,92.50
2023-06-11T10:30:30.113Z,81.50
2023-06-11T10:31:43.294Z,74.00
2023-06-11T10:32:50.957Z,89.33
2023-06-11T10:34:05.412Z,88.83
2023-06-11T10:35:09.491Z,73.50
2023-06-11T10:36:28.335Z,73.83
2023-06-11T10:37:43.649Z,79.50
2023-06-11T10:38:46.633Z,81.83
2023-06-11T10:39:52.862Z,85.33
2023-06-11T10:41:04.941Z,86.83
2023-06-11T10:42:08.274Z,87.83
2023-06-11T10:43:18.927Z,86.83
2023-06-11T10:44:25.187Z,90.00
2023-06-11T10:45:37.417Z,90.50
2023-06-11T10:46:54.037Z,86.83
2023-06-11T10:48:01.864Z,76.67
2023-06-11T10:49:15.975Z,77.00
2023-06-11T10:50:31.776Z,77.50
2023-06-11T10:51:40.926Z,76.33
2023-06-11T10:52:56.382Z,86.83
2023-06-11T10:54:00.542Z,120.83
2023-06-11T10:55:10.563Z,113.50
2023-06-11T10:56:14.677Z,102.83
2023-06-11T10:57:17.725Z,102.50
2023-06-11T10:58:24.606Z,99.17
2023-06-11T10:59:27.687Z,108.83
2023-06-11T11:00:34.439Z,118.00
2023-06-11T11:01:38.450Z,103.33
2023-06-11T11:02:41.754Z,78.33
2023-06-11T11:03:45.201Z,79.67
2023-06-11T11:04:52.837Z,82.17
2023-06-11T11:05:57.124Z,85.33
2023-06-11T11:07:09.836Z,86.50
2023-06-11T11:08:15.941Z,74.83
2023-06-11T11:09:24.672Z,70.67
2023-06-11T11:10:29.028Z,73.50
2023-06-11T11:11:32.085Z,93.83
2023-06-11T11:12:43.595Z,98.33
2023-06-11T11:13:47.401Z,84.33
2023-06-11T11:14:52.183Z,78.50
2023-06-11T11:15:55.327Z,77.67
2023-06-11T11:17:02.436Z,76.33
2023-06-11T11:18:05.869Z,72.67
2023-06-11T11:19:08.907Z,88.83
2023-06-11T11:20:15.974Z,116.83
2023-06-11T11:21:20.201Z,135.67
2023-06-11T11:22:23.181Z,107.67
2023-06-11T11:23:26.220Z,102.33
2023-06-11T11:24:29.225Z,101.17
2023-06-11T11:25:33.594Z,116.67
2023-06-11T11:26:47.185Z,113.50
2023-06-11T11:27:50.224Z,97.50
2023-06-11T11:28:53.279Z,81.00
2023-06-11T11:30:00.781Z,76.67
2023-06-11T11:31:06.653Z,72.33
2023-06-11T11:32:09.833Z,78.67
2023-06-11T11:33:13.011Z,85.17
2023-06-11T11:34:16.263Z,83.50
2023-06-11T11:35:21.210Z,82.67
2023-06-11T11:36:24.241Z,98.50
2023-06-11T11:37:31.564Z,112.00
2023-06-11T11:38:37.094Z,113.83
2023-06-11T11:39:40.079Z,129.00
2023-06-11T11:40:43.087Z,126.83
2023-06-11T11:41:49.527Z,117.17
2023-06-11T11:42:58.239Z,117.67
2023-06-11T11:44:01.423Z,115.00
2023-06-11T11:45:04.908Z,114.17
2023-06-11T11:46:24.994Z,112.67
2023-06-11T11:47:28.665Z,118.67
2023-06-11T11:48:33.733Z,116.33
2023-06-11T11:49:37.248Z,101.17
2023-06-11T11:50:41.631Z,96.33
2023-06-11T11:51:53.731Z,94.83
2023-06-11T11:53:05.221Z,99.67
2023-06-11T11:54:08.900Z,101.00
2023-06-11T11:55:11.880Z,98.83
2023-06-11T11:56:14.850Z,95.50
2023-06-11T11:57:22.021Z,94.00
2023-06-11T11:58:24.994Z,92.67
2023-06-11T11:59:29.353Z,81.00
2023-06-11T12:00:33.105Z,82.50
2023-06-11T12:01:38.435Z,74.00
2023-06-11T12:02:44.481Z,63.00
2023-06-11T12:04:06.495Z,62.50
2023-06-11T12:05:14.541Z,72.83
2023-06-11T12:06:26.351Z,75.00
2023-06-11T12:07:29.459Z,77.33
2023-06-11T12:08:34.168Z,79.83
2023-06-11T12:09:39.328Z,100.00
2023-06-11T12:10:42.317Z,113.67
2023-06-11T12:12:00.124Z,129.33
2023-06-11T12:13:08.271Z,136.33
2023-06-11T12:14:11.403Z,129.83
2023-06-11T12:15:14.680Z,132.50
2023-06-11T12:16:17.869Z,123.67
2023-06-11T12:17:20.986Z,117.67
2023-06-11T12:18:24.007Z,110.67
2023-06-11T12:19:30.087Z,119.17
2023-06-11T12:20:33.148Z,110.17
2023-06-11T12:21:36.131Z,93.67
2023-06-11T12:22:39.988Z,72.33
2023-06-11T12:23:43.050Z,71.00
2023-06-11T12:24:46.109Z,81.83
2023-06-11T12:25:49.436Z,83.33
2023-06-11T12:26:55.199Z,86.33
2023-06-11T12:27:58.182Z,90.33
2023-06-11T12:29:01.350Z,95.67
2023-06-11T12:30:04.793Z,95.83
2023-06-11T12:31:09.039Z,92.33
2023-06-11T12:32:15.392Z,85.00
2023-06-11T12:33:18.609Z,83.33
2023-06-11T12:34:21.637Z,85.17
2023-06-11T12:35:25.445Z,89.17
2023-06-11T12:36:28.415Z,95.33
2023-06-11T12:37:31.437Z,119.67
2023-06-11T12:38:34.404Z,144.83
2023-06-11T12:39:37.636Z,151.50
2023-06-11T12:40:41.214Z,141.50
2023-06-11T12:41:44.284Z,141.33
2023-06-11T12:42:47.260Z,126.83
2023-06-11T12:43:50.403Z,112.50
2023-06-11T12:44:53.385Z,106.00
2023-06-11T12:45:56.479Z,93.83
2023-06-11T12:46:59.482Z,89.67
2023-06-11T12:48:02.577Z,78.00
2023-06-11T12:49:05.578Z,73.33
2023-06-11T12:50:09.352Z,72.83
2023-06-11T12:51:12.497Z,74.67
2023-06-11T12:52:15.505Z,76.33
2023-06-11T12:53:18.522Z,79.33
2023-06-11T12:54:24.817Z,76.33
2023-06-11T12:55:27.870Z,80.50
2023-06-11T12:56:30.912Z,80.33
2023-06-11T12:57:33.921Z,61.50
2023-06-11T12:58:36.916Z,54.83
2023-06-11T12:59:40.326Z,44.33
2023-06-11T13:00:43.302Z,43.33
2023-06-11T13:01:46.490Z,40.17
2023-06-11T13:02:49.703Z,44.50
2023-06-11T13:03:53.099Z,51.33
2023-06-11T13:04:56.198Z,52.83
2023-06-11T13:05:59.291Z,58.50
2023-06-11T13:07:02.262Z,75.50
2023-06-11T13:08:06.345Z,82.67
2023-06-11T13:09:09.404Z,88.17
2023-06-11T13:10:12.628Z,84.50
2023-06-11T13:11:15.934Z,91.00
2023-06-11T13:12:20.595Z,88.00
2023-06-11T13:13:23.633Z,84.67
2023-06-11T13:14:26.616Z,75.83
2023-06-11T13:15:29.588Z,70.00
2023-06-11T13:16:32.660Z,64.50
2023-06-11T13:17:36.225Z,57.00
2023-06-11T13:18:39.306Z,55.33
2023-06-11T13:19:42.318Z,58.00
2023-06-11T13:20:45.331Z,54.83
2023-06-11T13:21:48.388Z,52.83
2023-06-11T13:22:51.402Z,51.83
2023-06-11T13:23:55.140Z,54.83
2023-06-11T13:24:58.215Z,55.00
2023-06-11T13:26:02.201Z,54.00
2023-06-11T13:27:06.241Z,61.00
2023-06-11T13:28:09.213Z,69.50
2023-06-11T13:29:12.617Z,71.50
2023-06-11T13:30:15.958Z,73.83
2023-06-11T13:31:19.289Z,70.83
2023-06-11T13:32:23.720Z,67.83
2023-06-11T13:33:26.778Z,63.17
2023-06-11T13:34:29.889Z,60.17
2023-06-11T13:35:33.215Z,57.67
2023-06-11T13:36:37.198Z,50.17
2023-06-11T13:37:40.261Z,51.83
2023-06-11T13:38:43.716Z,58.33
2023-06-11T13:39:46.856Z,65.17
2023-06-11T13:40:49.887Z,79.17
2023-06-11T13:41:53.242Z,89.50
2023-06-11T13:42:56.230Z,97.83
2023-06-11T13:43:59.384Z,94.00
2023-06-11T13:45:06.375Z,98.50
2023-06-11T13:46:10.036Z,90.83
2023-06-11T13:47:13.409Z,88.50
2023-06-11T13:48:19.627Z,69.33